Time;durP1;ratioP1;P1;durP2;ratioP2;P2;SDS_P1;SDS_P2;PMS_P1;PMS_P2;Temp;Humidity;BMP_temperature;BMP_pressure;BME280_temperature;BME280_humidity;BME280_pressure;Samples;Min_cycle;Max_cycle;Signal;HPM_P1;HPM_P2
2021/12/20 00:01:50;;;;;;;2.63;1.20;;;-1.80;99.90;;;;;;2215890;64;20143;-44
2021/12/20 00:04:17;;;;;;;4.00;1.47;;;-1.80;99.90;;;;;;2212823;64;20509;-44
2021/12/20 00:06:44;;;;;;;4.83;1.20;;;-1.80;99.90;;;;;;2212869;64;20117;-45
2021/12/20 00:09:10;;;;;;;2.20;1.20;;;-1.80;99.90;;;;;;2215994;64;20149;-44
2021/12/20 00:11:37;;;;;;;2.77;1.27;;;-1.80;99.90;;;;;;2216067;64;20081;-43
2021/12/20 00:14:04;;;;;;;5.33;2.70;;;-1.70;99.90;;;;;;2212802;64;20120;-45
2021/12/20 00:16:31;;;;;;;2.83;1.10;;;-1.70;99.90;;;;;;2215889;64;20496;-43
2021/12/20 00:18:58;;;;;;;2.97;1.57;;;-1.70;99.90;;;;;;2215971;64;20085;-52
2021/12/20 00:21:24;;;;;;;2.93;1.70;;;-1.70;99.90;;;;;;2216015;64;20097;-47
2021/12/20 00:23:51;;;;;;;4.40;1.93;;;-1.70;99.90;;;;;;2215929;64;20111;-45
2021/12/20 00:26:18;;;;;;;3.13;1.87;;;-1.60;99.90;;;;;;2216099;64;20082;-45
2021/12/20 00:28:45;;;;;;;2.10;1.37;;;-1.60;99.90;;;;;;2216025;64;20093;-44
2021/12/20 00:31:12;;;;;;;1.80;0.90;;;-1.60;99.90;;;;;;2215863;64;20557;-44
2021/12/20 00:33:38;;;;;;;2.23;1.30;;;-1.60;99.90;;;;;;2215854;64;20100;-40
2021/12/20 00:36:07;;;;;;;4.87;1.77;;;-1.60;99.90;;;;;;2215875;64;20446;-45
2021/12/20 00:41:29;;;;;;;3.30;1.63;;;-1.60;99.90;;;;;;2207813;64;20100;-47
2021/12/20 00:43:56;;;;;;;3.60;1.33;;;-1.60;99.90;;;;;;2216074;64;20108;-41
2021/12/20 00:46:23;;;;;;;1.57;0.87;;;-1.50;99.90;;;;;;2216348;64;20113;-40
2021/12/20 00:48:50;;;;;;;2.87;1.40;;;-1.50;99.90;;;;;;2219683;64;20460;-42
2021/12/20 00:51:17;;;;;;;2.40;1.63;;;-1.50;99.90;;;;;;2219674;64;20100;-39
2021/12/20 00:53:43;;;;;;;3.53;1.30;;;-1.50;99.90;;;;;;2216575;64;20096;-40
2021/12/20 00:56:10;;;;;;;4.37;1.93;;;-1.40;99.90;;;;;;2220296;64;20105;-41
2021/12/20 00:58:37;;;;;;;3.10;1.30;;;-1.40;99.90;;;;;;2220426;64;20599;-37
2021/12/20 01:01:05;;;;;;;3.60;1.73;;;-1.40;99.90;;;;;;2220183;64;20104;-39
2021/12/20 01:03:32;;;;;;;1.67;0.90;;;-1.40;99.90;;;;;;2223720;64;20084;-41
2021/12/20 01:05:59;;;;;;;1.77;1.27;;;-1.40;99.90;;;;;;2217211;64;20095;-41
2021/12/20 01:08:29;;;;;;;2.60;1.20;;;-1.40;99.90;;;;;;2217306;64;20093;-41
2021/12/20 01:10:56;;;;;;;3.00;1.43;;;-1.40;99.90;;;;;;2216833;64;20483;-44
2021/12/20 01:13:28;;;;;;;3.20;1.87;;;-1.40;99.90;;;;;;2220450;64;20481;-43
2021/12/20 01:15:57;;;;;;;1.73;1.07;;;-1.30;99.90;;;;;;2217034;64;20089;-42
2021/12/20 01:18:24;;;;;;;2.50;1.73;;;-1.30;99.90;;;;;;2217277;64;20089;-42
2021/12/20 01:20:51;;;;;;;1.83;1.17;;;-1.30;99.90;;;;;;2217009;64;20111;-48
2021/12/20 01:23:18;;;;;;;2.73;0.90;;;-1.30;99.90;;;;;;2217185;64;20622;-43
2021/12/20 01:25:45;;;;;;;4.83;1.17;;;-1.30;99.90;;;;;;2213914;64;20101;-40
2021/12/20 01:28:12;;;;;;;1.93;0.80;;;-1.30;99.90;;;;;;2217247;64;20579;-41
2021/12/20 01:30:39;;;;;;;1.93;1.20;;;-1.20;99.90;;;;;;2220269;64;20544;-48
2021/12/20 01:33:09;;;;;;;3.07;1.10;;;-1.20;99.90;;;;;;2216913;64;20104;-40
2021/12/20 01:35:36;;;;;;;2.97;1.37;;;-1.20;99.90;;;;;;2217096;64;20100;-42
2021/12/20 01:38:03;;;;;;;3.10;1.43;;;-1.20;99.90;;;;;;2216895;64;20111;-45
2021/12/20 01:40:30;;;;;;;2.67;1.73;;;-1.20;99.90;;;;;;2217107;64;20092;-44
2021/12/20 01:42:58;;;;;;;2.43;1.73;;;-1.20;99.90;;;;;;2216875;64;20100;-45
2021/12/20 01:45:26;;;;;;;1.40;0.90;;;-1.20;99.90;;;;;;2217162;64;20092;-44
2021/12/20 01:48:03;;;;;;;1.90;0.80;;;-1.10;99.90;;;;;;2216220;64;20408;-45
2021/12/20 01:53:14;;;;;;;2.33;1.30;;;-1.10;99.90;;;;;;2216396;64;20093;-44
2021/12/20 01:55:41;;;;;;;2.23;0.97;;;-1.10;99.90;;;;;;2219554;64;20251;-45
2021/12/20 01:58:08;;;;;;;2.20;0.87;;;-1.00;99.90;;;;;;2216260;64;20434;-45
2021/12/20 02:00:37;;;;;;;2.03;0.83;;;-1.00;99.90;;;;;;2216408;64;20520;-44
2021/12/20 02:03:04;;;;;;;2.67;1.10;;;-1.00;99.90;;;;;;2216319;64;20093;-56
2021/12/20 02:08:23;;;;;;;2.87;1.73;;;-1.00;99.90;;;;;;2219626;64;20552;-53
2021/12/20 02:10:53;;;;;;;2.47;0.80;;;-0.90;99.90;;;;;;2219314;64;20097;-45
2021/12/20 02:13:20;;;;;;;2.10;1.27;;;-0.90;99.90;;;;;;2216249;64;20549;-44
2021/12/20 02:15:47;;;;;;;2.67;1.07;;;-0.90;99.90;;;;;;2219249;64;20124;-45
2021/12/20 02:18:14;;;;;;;1.93;1.27;;;-0.90;99.90;;;;;;2219624;64;20580;-47
2021/12/20 02:20:41;;;;;;;1.67;1.00;;;-0.90;99.90;;;;;;2216103;64;20554;-45
2021/12/20 02:23:08;;;;;;;2.80;1.27;;;-0.90;99.90;;;;;;2216444;64;20170;-46
2021/12/20 02:25:35;;;;;;;3.23;1.37;;;-0.80;99.90;;;;;;2216351;64;20093;-51
2021/12/20 02:28:12;;;;;;;1.50;0.73;;;-0.90;99.90;;;;;;2216220;64;20100;-45
2021/12/20 02:38:40;;;;;;;3.55;1.63;;;-0.80;99.90;;;;;;2219642;64;20646;-46
2021/12/20 02:41:11;;;;;;;2.03;1.20;;;-0.80;99.90;;;;;;2216109;64;20088;-46
2021/12/20 02:43:41;;;;;;;3.43;1.97;;;-0.80;99.90;;;;;;2216246;64;20588;-46
2021/12/20 02:48:55;;;;;;;3.30;1.77;;;-0.70;99.90;;;;;;2220135;64;20524;-46
2021/12/20 02:51:26;;;;;;;2.03;1.60;;;-0.70;99.90;;;;;;2220141;64;20127;-45
2021/12/20 02:53:54;;;;;;;3.30;1.37;;;-0.70;99.90;;;;;;2219887;64;20100;-46
2021/12/20 02:56:21;;;;;;;3.00;1.63;;;-0.70;99.90;;;;;;2216667;64;20111;-41
2021/12/20 02:58:48;;;;;;;4.67;1.93;;;-0.70;99.90;;;;;;2216944;64;20096;-40
2021/12/20 03:01:15;;;;;;;4.23;1.40;;;-0.60;99.90;;;;;;2220022;64;20194;-39
2021/12/20 03:03:41;;;;;;;3.47;2.07;;;-0.60;99.90;;;;;;2216902;64;20096;-40
2021/12/20 03:06:10;;;;;;;1.73;1.13;;;-0.60;99.90;;;;;;2220009;64;20100;-40
2021/12/20 03:08:37;;;;;;;3.37;1.03;;;-0.60;99.90;;;;;;2216888;64;20085;-38
2021/12/20 03:11:04;;;;;;;6.27;2.00;;;-0.60;99.90;;;;;;2213647;64;20081;-38
2021/12/20 03:13:33;;;;;;;5.03;1.80;;;-0.60;99.90;;;;;;2220089;64;20170;-40
2021/12/20 03:16:00;;;;;;;1.77;1.10;;;-0.60;99.90;;;;;;2216606;64;20089;-39
2021/12/20 03:18:27;;;;;;;1.80;1.20;;;-0.60;99.90;;;;;;2216743;64;20085;-40
2021/12/20 03:20:53;;;;;;;2.90;1.90;;;-0.50;99.90;;;;;;2220116;64;20544;-40
2021/12/20 03:23:21;;;;;;;5.07;1.73;;;-0.50;99.90;;;;;;2219875;64;20185;-40
2021/12/20 03:25:48;;;;;;;4.37;1.73;;;-0.50;99.90;;;;;;2220054;64;20096;-40
2021/12/20 03:28:15;;;;;;;2.03;1.20;;;-0.50;99.90;;;;;;2219768;64;20118;-41
2021/12/20 03:30:41;;;;;;;3.67;1.43;;;-0.50;99.90;;;;;;2216783;64;20091;-40
2021/12/20 03:33:08;;;;;;;3.30;1.80;;;-0.40;99.90;;;;;;2219957;64;20077;-51
2021/12/20 03:35:35;;;;;;;3.23;1.80;;;-0.40;99.90;;;;;;2216738;64;20583;-39
2021/12/20 03:38:02;;;;;;;2.40;1.27;;;-0.40;99.90;;;;;;2219690;64;20097;-39
2021/12/20 03:40:29;;;;;;;3.53;1.40;;;-0.40;99.90;;;;;;2216754;64;20096;-40
2021/12/20 03:42:56;;;;;;;3.30;1.67;;;-0.40;99.90;;;;;;2216690;64;20092;-39
2021/12/20 03:45:23;;;;;;;3.63;1.57;;;-0.40;99.90;;;;;;2220016;64;20096;-39
2021/12/20 03:47:50;;;;;;;2.37;1.63;;;-0.40;99.90;;;;;;2213142;64;20172;-42
2021/12/20 03:50:17;;;;;;;3.73;1.97;;;-0.30;99.90;;;;;;2219902;64;20126;-41
2021/12/20 03:52:44;;;;;;;2.77;1.20;;;-0.30;99.90;;;;;;2219855;64;20166;-47
2021/12/20 03:55:13;;;;;;;2.97;1.80;;;-0.30;99.90;;;;;;2222833;64;20357;-42
2021/12/20 03:57:40;;;;;;;3.70;1.50;;;-0.30;99.90;;;;;;2219775;64;20092;-40
2021/12/20 04:00:09;;;;;;;6.33;2.57;;;-0.30;99.90;;;;;;2216595;64;20073;-42
2021/12/20 04:02:43;;;;;;;5.40;2.53;;;-0.30;99.90;;;;;;2216833;64;20080;-42
2021/12/20 04:05:11;;;;;;;2.57;1.30;;;-0.30;99.90;;;;;;2216682;64;20148;-40
2021/12/20 04:07:38;;;;;;;5.30;2.07;;;-0.20;99.90;;;;;;2223141;64;20103;-40
2021/12/20 04:10:05;;;;;;;4.73;3.27;;;-0.20;99.90;;;;;;2219734;64;20103;-42
2021/12/20 04:12:32;;;;;;;2.33;1.50;;;-0.20;99.90;;;;;;2219937;64;20579;-41
2021/12/20 04:14:59;;;;;;;4.00;2.00;;;-0.20;99.90;;;;;;2219784;64;20084;-42
2021/12/20 04:17:26;;;;;;;10.13;1.93;;;-0.20;99.90;;;;;;2219881;64;20100;-43
2021/12/20 04:19:53;;;;;;;4.23;2.10;;;-0.20;99.90;;;;;;2219730;64;20077;-43
2021/12/20 04:22:20;;;;;;;3.60;1.90;;;-0.20;99.90;;;;;;2219894;64;20089;-42
2021/12/20 04:24:47;;;;;;;2.50;1.40;;;-0.20;99.90;;;;;;2216509;64;20552;-42
2021/12/20 04:27:13;;;;;;;6.63;2.23;;;-0.10;99.90;;;;;;2222836;64;20108;-42
2021/12/20 04:29:40;;;;;;;4.23;1.93;;;-0.10;99.90;;;;;;2217032;64;20526;-43
2021/12/20 04:32:07;;;;;;;5.23;1.93;;;-0.10;99.90;;;;;;2220647;64;20552;-41
2021/12/20 04:34:37;;;;;;;3.70;1.70;;;-0.10;99.90;;;;;;2217260;64;20472;-42
2021/12/20 04:37:06;;;;;;;4.63;2.40;;;-0.10;99.90;;;;;;2220549;64;20512;-41
2021/12/20 04:39:33;;;;;;;3.43;2.20;;;-0.10;99.90;;;;;;2217014;64;20118;-42
2021/12/20 04:42:00;;;;;;;3.30;1.83;;;-0.10;99.90;;;;;;2217293;64;20103;-43
2021/12/20 04:44:27;;;;;;;3.70;2.20;;;0.00;99.90;;;;;;2220327;64;20093;-43
2021/12/20 04:46:54;;;;;;;2.83;2.00;;;0.00;99.90;;;;;;2216973;64;20096;-41
2021/12/20 04:49:24;;;;;;;3.80;2.30;;;0.00;99.90;;;;;;2217282;64;20091;-41
2021/12/20 04:51:53;;;;;;;3.43;2.27;;;0.00;99.90;;;;;;2220307;64;20248;-41
2021/12/20 04:54:20;;;;;;;6.03;2.57;;;0.00;99.90;;;;;;2217134;64;20088;-43
2021/12/20 04:56:47;;;;;;;4.77;3.23;;;0.00;99.90;;;;;;2220057;64;20115;-47
2021/12/20 04:59:13;;;;;;;6.07;3.07;;;0.00;99.90;;;;;;2217302;64;20547;-46
2021/12/20 05:01:40;;;;;;;7.80;2.30;;;0.00;99.90;;;;;;2220374;64;20084;-44
2021/12/20 05:04:07;;;;;;;5.23;1.93;;;0.00;99.90;;;;;;2217049;64;20089;-46
2021/12/20 05:06:34;;;;;;;7.30;3.93;;;0.00;99.90;;;;;;2220310;64;20124;-43
2021/12/20 05:09:03;;;;;;;4.43;2.67;;;0.00;99.90;;;;;;2217083;64;20108;-46
2021/12/20 05:11:33;;;;;;;10.63;3.37;;;0.10;99.90;;;;;;2217256;64;20100;-42
2021/12/20 05:14:01;;;;;;;8.13;4.00;;;0.00;99.90;;;;;;2216976;64;20111;-42
2021/12/20 05:16:28;;;;;;;8.93;3.27;;;0.00;99.90;;;;;;2217000;64;20093;-41
2021/12/20 05:18:55;;;;;;;7.03;4.47;;;0.10;99.90;;;;;;2220404;64;20468;-42
2021/12/20 05:21:22;;;;;;;4.70;3.20;;;0.10;99.90;;;;;;2217091;64;20088;-42
2021/12/20 05:23:49;;;;;;;5.97;2.93;;;0.10;99.90;;;;;;2220226;64;20101;-42
2021/12/20 05:26:15;;;;;;;5.40;3.57;;;0.10;99.90;;;;;;2217226;64;20111;-44
2021/12/20 05:28:42;;;;;;;8.13;3.50;;;0.10;99.90;;;;;;2220278;64;20068;-41
2021/12/20 05:31:09;;;;;;;6.10;3.43;;;0.20;99.90;;;;;;2220365;64;20108;-42
2021/12/20 05:33:36;;;;;;;8.80;3.63;;;0.20;99.90;;;;;;2220112;64;20115;-43
2021/12/20 05:36:06;;;;;;;4.70;3.17;;;0.20;99.90;;;;;;2220180;64;20119;-45
2021/12/20 05:38:33;;;;;;;6.47;2.80;;;0.20;99.90;;;;;;2220258;64;20495;-45
2021/12/20 05:41:00;;;;;;;5.97;4.00;;;0.20;99.90;;;;;;2219925;64;20101;-43
2021/12/20 05:43:26;;;;;;;6.07;3.33;;;0.20;99.90;;;;;;2220304;64;20088;-43
2021/12/20 05:45:53;;;;;;;8.27;3.93;;;0.20;99.90;;;;;;2220098;64;20100;-44
2021/12/20 05:48:20;;;;;;;7.33;3.30;;;0.20;99.90;;;;;;2219138;64;20097;-42
2021/12/20 05:50:47;;;;;;;8.93;3.60;;;0.20;99.90;;;;;;2219460;64;20108;-50
2021/12/20 05:53:14;;;;;;;7.10;3.67;;;0.20;99.90;;;;;;2219533;64;20108;-45
2021/12/20 05:55:41;;;;;;;12.77;5.63;;;0.20;99.90;;;;;;2219411;64;20177;-43
2021/12/20 05:58:08;;;;;;;13.53;6.70;;;0.20;99.90;;;;;;2219387;64;20597;-42
2021/12/20 06:00:34;;;;;;;6.90;4.20;;;0.30;99.90;;;;;;2216424;64;20572;-42
2021/12/20 06:03:01;;;;;;;9.00;4.63;;;0.30;99.90;;;;;;2219257;64;20136;-42
2021/12/20 06:05:28;;;;;;;8.87;4.47;;;0.30;99.90;;;;;;2216427;64;20146;-40
2021/12/20 06:07:56;;;;;;;5.50;3.40;;;0.30;99.90;;;;;;2216262;64;20089;-38
2021/12/20 06:10:23;;;;;;;5.70;3.00;;;0.30;99.90;;;;;;2216283;64;20102;-38
2021/12/20 06:12:50;;;;;;;4.93;2.33;;;0.30;99.90;;;;;;2219607;64;20104;-36
2021/12/20 06:15:17;;;;;;;7.83;4.27;;;0.40;99.90;;;;;;2212991;64;20140;-37
2021/12/20 06:17:44;;;;;;;9.50;4.47;;;0.40;99.90;;;;;;2219627;64;20469;-35
2021/12/20 06:20:12;;;;;;;10.80;5.17;;;0.40;99.90;;;;;;2216309;64;20108;-35
2021/12/20 06:22:39;;;;;;;10.33;5.90;;;0.40;99.90;;;;;;2219352;64;20172;-34
2021/12/20 06:25:06;;;;;;;8.93;3.00;;;0.40;99.90;;;;;;2215843;64;20108;-34
2021/12/20 06:27:33;;;;;;;6.53;3.70;;;0.50;99.90;;;;;;2212767;64;20089;-36
2021/12/20 06:30:00;;;;;;;5.60;2.43;;;0.50;99.90;;;;;;2215981;64;20089;-35
2021/12/20 06:32:27;;;;;;;4.47;1.67;;;0.50;99.90;;;;;;2215889;64;20085;-36
2021/12/20 06:34:54;;;;;;;5.77;3.17;;;0.50;99.90;;;;;;2219002;64;20484;-39
2021/12/20 06:37:20;;;;;;;4.07;2.50;;;0.50;99.90;;;;;;2215970;64;20447;-36
2021/12/20 06:39:47;;;;;;;5.73;2.43;;;0.50;99.90;;;;;;2216447;64;20100;-35
2021/12/20 06:42:14;;;;;;;3.17;1.77;;;0.50;99.90;;;;;;2214956;64;20488;-44
2021/12/20 06:44:41;;;;;;;4.37;1.97;;;0.50;99.90;;;;;;2214891;64;20174;-33
2021/12/20 06:47:08;;;;;;;4.83;2.03;;;0.60;99.90;;;;;;2214967;64;20096;-35
2021/12/20 06:49:35;;;;;;;9.33;3.67;;;0.60;99.90;;;;;;2208642;64;20085;-31
2021/12/20 06:52:03;;;;;;;8.20;3.77;;;0.60;99.90;;;;;;2208530;64;20611;-31
2021/12/20 06:54:30;;;;;;;6.80;3.37;;;0.60;99.90;;;;;;2208665;64;20096;-36
2021/12/20 06:56:56;;;;;;;5.87;2.93;;;0.60;99.90;;;;;;2208552;64;20270;-33
2021/12/20 06:59:23;;;;;;;7.17;2.53;;;0.60;99.90;;;;;;2208568;64;20534;-33
2021/12/20 07:01:50;;;;;;;4.13;1.70;;;0.60;99.90;;;;;;2208809;64;20097;-49
2021/12/20 07:04:17;;;;;;;11.57;3.03;;;0.60;99.90;;;;;;2208944;64;20089;-33
2021/12/20 07:06:44;;;;;;;6.17;1.90;;;0.70;99.90;;;;;;2208671;64;20093;-40
2021/12/20 07:09:11;;;;;;;11.27;3.50;;;0.60;99.90;;;;;;2208759;64;20103;-39
2021/12/20 07:11:40;;;;;;;4.60;2.17;;;0.60;99.90;;;;;;2208602;64;20104;-45
2021/12/20 07:14:08;;;;;;;4.60;1.83;;;0.60;99.90;;;;;;2215208;64;20093;-43
2021/12/20 07:16:35;;;;;;;7.30;1.60;;;0.60;99.90;;;;;;2216564;64;20550;-41
2021/12/20 07:19:02;;;;;;;4.43;1.87;;;0.60;99.90;;;;;;2220034;64;20088;-44
2021/12/20 07:21:29;;;;;;;5.10;1.80;;;0.70;99.90;;;;;;2219837;64;20100;-38
2021/12/20 07:23:56;;;;;;;8.00;2.97;;;0.70;99.90;;;;;;2219918;64;20123;-42
2021/12/20 07:26:23;;;;;;;5.33;1.97;;;0.70;99.90;;;;;;2216596;64;20105;-40
2021/12/20 07:28:50;;;;;;;4.17;2.00;;;0.70;99.90;;;;;;2213618;64;20552;-37
2021/12/20 07:31:16;;;;;;;9.77;2.27;;;0.70;99.90;;;;;;2220112;64;20112;-35
2021/12/20 07:33:44;;;;;;;4.43;1.80;;;0.70;99.90;;;;;;2220074;64;20107;-37
2021/12/20 07:36:14;;;;;;;4.93;1.63;;;0.70;99.90;;;;;;2219658;64;20143;-36
2021/12/20 07:38:41;;;;;;;4.03;1.93;;;0.80;99.90;;;;;;2219779;64;20164;-35
2021/12/20 07:41:08;;;;;;;10.67;2.43;;;0.80;99.90;;;;;;2220002;64;20159;-32
2021/12/20 07:43:35;;;;;;;5.80;2.10;;;0.80;99.90;;;;;;2219896;64;20233;-33
2021/12/20 07:46:01;;;;;;;2.20;1.40;;;0.90;99.90;;;;;;2223265;64;20109;-36
2021/12/20 07:48:27;;;;;;;2.50;1.33;;;0.90;99.90;;;;;;2215845;64;20657;-42
2021/12/20 07:50:54;;;;;;;4.53;1.40;;;0.90;99.90;;;;;;2216033;64;20081;-46
2021/12/20 07:53:21;;;;;;;3.80;1.90;;;1.00;99.90;;;;;;2216077;64;20166;-46
2021/12/20 07:55:47;;;;;;;6.33;1.70;;;0.90;99.90;;;;;;2215973;64;20565;-43
2021/12/20 07:58:14;;;;;;;6.30;1.60;;;0.90;99.90;;;;;;2216041;64;20082;-43
2021/12/20 08:00:41;;;;;;;3.43;1.57;;;1.00;99.90;;;;;;2215738;64;20115;-45
2021/12/20 08:03:09;;;;;;;9.83;1.77;;;1.00;99.90;;;;;;2215954;64;20077;-55
2021/12/20 08:05:35;;;;;;;3.77;2.10;;;1.00;99.90;;;;;;2216759;64;20174;-52
2021/12/20 08:08:02;;;;;;;4.00;1.57;;;0.90;99.90;;;;;;2216999;64;20476;-66
2021/12/20 08:10:28;;;;;;;6.77;1.77;;;1.00;99.90;;;;;;2213501;64;20205;-62
2021/12/20 08:12:55;;;;;;;7.33;1.83;;;1.10;99.90;;;;;;2212927;64;20159;-46
2021/12/20 08:15:22;;;;;;;3.37;1.83;;;1.00;99.90;;;;;;2212353;64;20144;-47
2021/12/20 08:17:49;;;;;;;4.70;1.83;;;1.10;99.90;;;;;;2212343;64;20600;-46
2021/12/20 08:20:16;;;;;;;3.27;1.50;;;1.10;99.90;;;;;;2212312;64;20101;-45
2021/12/20 08:22:42;;;;;;;3.20;1.30;;;1.10;99.90;;;;;;2212429;64;20158;-41
2021/12/20 08:25:09;;;;;;;2.20;1.30;;;1.20;99.90;;;;;;2212387;64;20113;-47
2021/12/20 08:27:36;;;;;;;3.97;1.70;;;1.10;99.90;;;;;;2209098;64;20144;-43
2021/12/20 08:30:04;;;;;;;5.03;2.17;;;1.20;99.90;;;;;;2212413;64;20111;-38
2021/12/20 08:32:31;;;;;;;4.43;1.57;;;1.20;99.90;;;;;;2212474;64;20093;-39
2021/12/20 08:34:57;;;;;;;8.60;1.87;;;1.30;99.90;;;;;;2212493;64;20091;-38
2021/12/20 08:37:24;;;;;;;6.53;2.47;;;1.30;99.90;;;;;;2212478;64;20081;-38
2021/12/20 08:39:51;;;;;;;3.60;1.60;;;1.30;99.90;;;;;;2212523;64;20084;-39
2021/12/20 08:42:18;;;;;;;4.70;1.53;;;1.40;99.90;;;;;;2215539;64;20089;-40
2021/12/20 08:44:44;;;;;;;1.83;1.30;;;1.40;99.90;;;;;;2216664;64;20085;-39
2021/12/20 08:47:11;;;;;;;5.37;1.63;;;1.40;99.90;;;;;;2218423;64;20089;-39
2021/12/20 08:49:37;;;;;;;2.90;2.27;;;1.30;99.90;;;;;;2223789;64;20099;-41
2021/12/20 08:52:04;;;;;;;3.77;1.23;;;1.40;99.90;;;;;;2223849;64;20100;-39
2021/12/20 08:54:30;;;;;;;2.70;1.47;;;1.40;99.90;;;;;;2223588;64;20088;-43
2021/12/20 08:56:57;;;;;;;3.17;1.43;;;1.30;99.90;;;;;;2220452;64;20164;-43
2021/12/20 08:59:24;;;;;;;2.63;1.47;;;1.30;99.90;;;;;;2223754;64;20085;-47
2021/12/20 09:01:51;;;;;;;2.10;1.30;;;1.40;99.90;;;;;;2220315;64;20108;-43
2021/12/20 09:04:17;;;;;;;3.17;1.53;;;1.40;99.90;;;;;;2217165;64;20073;-41
2021/12/20 09:06:45;;;;;;;3.07;1.50;;;1.40;99.90;;;;;;2223467;64;20092;-44
2021/12/20 09:09:13;;;;;;;3.60;1.43;;;1.50;99.90;;;;;;2223571;64;20088;-43
2021/12/20 09:11:40;;;;;;;2.50;1.90;;;1.50;99.90;;;;;;2215368;64;20104;-44
2021/12/20 09:14:06;;;;;;;1.77;1.30;;;1.50;99.90;;;;;;2212080;64;20104;-44
2021/12/20 09:16:33;;;;;;;3.40;1.57;;;1.50;99.90;;;;;;2215211;64;20181;-46
2021/12/20 09:18:59;;;;;;;6.17;2.13;;;1.50;99.90;;;;;;2212215;64;20136;-46
2021/12/20 09:21:26;;;;;;;2.47;1.23;;;1.60;99.90;;;;;;2212322;64;20434;-43
2021/12/20 09:23:55;;;;;;;4.37;1.30;;;1.60;99.90;;;;;;2212140;64;20139;-41
2021/12/20 09:26:21;;;;;;;5.63;1.67;;;1.70;99.90;;;;;;2212372;64;20077;-42
2021/12/20 09:28:48;;;;;;;2.50;1.90;;;1.60;99.90;;;;;;2208888;64;20540;-41
2021/12/20 09:31:15;;;;;;;4.50;1.70;;;1.70;99.90;;;;;;2212370;64;20174;-38
2021/12/20 09:33:41;;;;;;;2.23;1.33;;;1.70;99.90;;;;;;2212345;64;20089;-39
2021/12/20 09:36:08;;;;;;;2.07;1.40;;;1.80;99.90;;;;;;2215219;64;20107;-39
2021/12/20 09:38:34;;;;;;;2.33;1.47;;;1.80;99.90;;;;;;2212089;64;20160;-38
2021/12/20 09:43:54;;;;;;;2.13;1.50;;;1.80;99.90;;;;;;2205885;64;20544;-38
2021/12/20 09:46:24;;;;;;;2.47;1.67;;;2.00;99.90;;;;;;2215237;64;20136;-43
2021/12/20 09:48:54;;;;;;;5.27;1.57;;;2.00;99.90;;;;;;2215924;64;20572;-37
2021/12/20 09:51:21;;;;;;;2.73;1.00;;;2.00;99.90;;;;;;2216833;64;20111;-40
2021/12/20 09:53:47;;;;;;;6.00;1.53;;;2.10;99.60;;;;;;2216879;64;20097;-43
2021/12/20 09:56:14;;;;;;;4.17;1.13;;;2.10;99.90;;;;;;2216815;64;20513;-47
2021/12/20 09:58:41;;;;;;;4.50;1.20;;;2.00;99.60;;;;;;2216931;64;20093;-43
2021/12/20 10:01:09;;;;;;;4.60;1.20;;;2.10;99.20;;;;;;2216608;64;20105;-43
2021/12/20 10:03:36;;;;;;;6.10;1.17;;;2.10;99.30;;;;;;2216835;64;20089;-41
2021/12/20 10:06:03;;;;;;;9.07;1.50;;;2.00;99.50;;;;;;2216792;64;20085;-42
2021/12/20 10:08:34;;;;;;;2.47;1.03;;;2.10;99.40;;;;;;2216513;64;20092;-44
2021/12/20 10:11:06;;;;;;;2.30;0.90;;;2.10;99.00;;;;;;2218847;64;20115;-42
2021/12/20 10:13:34;;;;;;;6.07;1.30;;;2.00;98.70;;;;;;2219041;64;20097;-39
2021/12/20 10:16:02;;;;;;;4.03;1.20;;;2.00;98.80;;;;;;2218920;64;20089;-39
2021/12/20 10:18:31;;;;;;;2.20;1.00;;;2.00;98.60;;;;;;2219183;64;20501;-40
2021/12/20 10:20:59;;;;;;;3.10;1.27;;;2.20;98.40;;;;;;2219235;64;20076;-43
2021/12/20 10:23:31;;;;;;;1.40;0.80;;;2.30;98.40;;;;;;2219072;64;20197;-45
2021/12/20 10:26:13;;;;;;;1.38;1.02;;;2.10;98.40;;;;;;2215837;64;20568;-44
2021/12/20 10:28:40;;;;;;;2.13;0.90;;;2.10;98.70;;;;;;2215882;64;20202;-42
2021/12/20 10:31:11;;;;;;;4.80;1.00;;;2.10;98.40;;;;;;2218902;64;20442;-42
2021/12/20 10:33:38;;;;;;;4.25;1.33;;;2.00;99.00;;;;;;2218984;64;20112;-44
2021/12/20 10:36:10;;;;;;;7.33;1.40;;;2.10;98.90;;;;;;2218867;64;20092;-44
2021/12/20 10:38:39;;;;;;;5.37;1.33;;;2.10;98.40;;;;;;2218764;64;20126;-46
2021/12/20 10:41:14;;;;;;;2.25;0.98;;;2.10;97.70;;;;;;2219047;64;20113;-44
2021/12/20 10:43:51;;;;;;;3.97;1.20;;;2.10;98.10;;;;;;2218882;64;20072;-48
2021/12/20 10:46:31;;;;;;;1.57;0.77;;;2.00;97.50;;;;;;2210973;64;20101;-46
2021/12/20 10:49:10;;;;;;;1.53;0.73;;;2.10;97.70;;;;;;2208639;64;20104;-49
2021/12/20 10:51:39;;;;;;;5.87;1.00;;;2.00;97.40;;;;;;2207408;64;20082;-45
2021/12/20 10:54:10;;;;;;;3.13;1.00;;;2.00;97.70;;;;;;2207353;64;20105;-47
2021/12/20 10:56:38;;;;;;;1.60;0.77;;;2.20;97.60;;;;;;2207214;64;20582;-46
2021/12/20 10:59:10;;;;;;;4.83;0.97;;;2.20;97.60;;;;;;2207354;64;20473;-46
2021/12/20 11:02:20;;;;;;;1.23;0.90;;;2.20;97.20;;;;;;2207431;64;20231;-50
2021/12/20 11:04:41;;;;;;;;;;;2.10;97.70;;;;;;2207231;64;20097;-54
2021/12/20 11:09:44;;;;;;;2.00;1.47;;;2.10;99.10;;;;;;2207405;64;20102;-46
2021/12/20 11:12:15;;;;;;;4.20;1.17;;;1.90;99.20;;;;;;2203951;64;20526;-51
2021/12/20 11:14:46;;;;;;;4.03;0.80;;;1.90;99.90;;;;;;2204231;64;20176;-53
2021/12/20 11:17:14;;;;;;;2.07;1.27;;;1.90;99.30;;;;;;2209455;64;20099;-53
2021/12/20 11:19:42;;;;;;;2.30;1.20;;;1.80;99.30;;;;;;2212777;64;20082;-54
2021/12/20 11:22:20;;;;;;;3.07;0.90;;;1.80;99.30;;;;;;2212793;64;20085;-48
2021/12/20 11:24:51;;;;;;;2.10;1.00;;;1.80;99.10;;;;;;2212890;64;20097;-44
2021/12/20 11:27:18;;;;;;;1.53;0.93;;;1.90;98.80;;;;;;2212775;64;20094;-48
2021/12/20 11:29:46;;;;;;;4.10;0.80;;;1.70;98.60;;;;;;2212947;64;20101;-48
2021/12/20 11:32:13;;;;;;;2.10;1.00;;;1.60;98.90;;;;;;2212087;64;20089;-50
2021/12/20 11:34:41;;;;;;;5.10;1.00;;;1.60;99.00;;;;;;2212753;64;20453;-49
2021/12/20 11:37:12;;;;;;;1.10;0.90;;;1.40;99.20;;;;;;2212580;64;20170;-48
2021/12/20 11:39:39;;;;;;;2.50;0.70;;;1.40;99.40;;;;;;2212605;64;20089;-47
2021/12/20 11:42:07;;;;;;;1.90;0.73;;;1.30;99.50;;;;;;2211931;64;20168;-46
2021/12/20 11:44:35;;;;;;;1.60;1.10;;;1.30;99.50;;;;;;2212688;64;20109;-44
2021/12/20 11:47:07;;;;;;;7.17;4.27;;;1.30;99.70;;;;;;2214892;64;20092;-48
2021/12/20 11:49:34;;;;;;;1.97;1.10;;;1.30;99.80;;;;;;2220645;64;20089;-42
2021/12/20 11:52:22;;;;;;;2.60;1.43;;;1.30;99.90;;;;;;2220443;64;20625;-45
2021/12/20 11:54:51;;;;;;;7.17;1.70;;;1.20;99.90;;;;;;2220504;64;20089;-43
2021/12/20 11:57:35;;;;;;;2.23;1.50;;;1.20;99.90;;;;;;2216529;64;20655;-42
2021/12/20 12:00:19;;;;;;;2.90;1.30;;;1.10;99.90;;;;;;2220410;64;20085;-44
2021/12/20 12:02:47;;;;;;;1.70;0.85;;;1.10;99.90;;;;;;2220437;64;20152;-42
2021/12/20 12:05:17;;;;;;;2.10;1.13;;;1.10;99.90;;;;;;2219900;64;20471;-41
2021/12/20 12:07:45;;;;;;;2.37;1.30;;;1.20;99.90;;;;;;2220161;64;20107;-41
2021/12/20 12:10:14;;;;;;;1.73;1.20;;;1.10;99.90;;;;;;2220565;64;20565;-41
2021/12/20 12:12:45;;;;;;;1.80;1.20;;;1.10;99.90;;;;;;2220283;64;20222;-42
2021/12/20 12:15:21;;;;;;;2.17;1.00;;;1.10;99.90;;;;;;2219758;64;20097;-48
2021/12/20 12:18:04;;;;;;;1.50;1.13;;;1.00;99.90;;;;;;2220118;64;20097;-41
2021/12/20 12:20:43;;;;;;;2.43;1.07;;;1.00;99.90;;;;;;2220502;64;20081;-42
2021/12/20 12:23:23;;;;;;;6.70;1.60;;;0.90;99.90;;;;;;2220160;64;20156;-46
2021/12/20 12:25:51;;;;;;;3.67;2.07;;;0.90;99.90;;;;;;2220491;64;20110;-42
2021/12/20 12:28:39;;;;;;;3.70;1.40;;;0.90;99.90;;;;;;2220219;64;20100;-42
2021/12/20 12:31:06;;;;;;;2.87;1.73;;;0.90;99.90;;;;;;2219522;64;20092;-41
2021/12/20 12:33:38;;;;;;;6.27;1.50;;;0.90;99.90;;;;;;2219632;64;20099;-41
2021/12/20 12:36:09;;;;;;;8.10;1.40;;;0.80;99.90;;;;;;2219920;64;20092;-43
2021/12/20 12:38:47;;;;;;;4.33;1.70;;;0.80;99.90;;;;;;2219861;64;20096;-42
2021/12/20 12:41:21;;;;;;;4.50;1.10;;;0.80;99.90;;;;;;2220417;64;20085;-42
2021/12/20 12:44:08;;;;;;;5.30;1.20;;;0.80;99.90;;;;;;2220141;64;20100;-41
2021/12/20 12:46:43;;;;;;;5.83;1.40;;;0.80;99.90;;;;;;2220290;64;20124;-40
2021/12/20 12:49:22;;;;;;;3.17;1.27;;;0.70;99.90;;;;;;2220370;64;20583;-53
2021/12/20 12:51:55;;;;;;;4.57;1.47;;;0.70;99.90;;;;;;2220697;64;20086;-42
2021/12/20 12:54:38;;;;;;;1.23;0.73;;;0.70;99.90;;;;;;2220664;64;20128;-41
2021/12/20 12:57:10;;;;;;;3.33;1.57;;;0.70;99.90;;;;;;2220881;64;20107;-42
2021/12/20 12:59:55;;;;;;;1.70;0.90;;;0.70;99.90;;;;;;2220268;64;20621;-42
2021/12/20 13:02:28;;;;;;;2.13;0.85;;;0.70;99.90;;;;;;2220874;64;20081;-40
2021/12/20 13:04:56;;;;;;;1.40;1.00;;;0.70;99.50;;;;;;2220840;64;20097;-41
2021/12/20 13:07:32;;;;;;;5.23;1.27;;;0.70;99.50;;;;;;2220950;64;20177;-42
2021/12/20 13:10:03;;;;;;;2.53;0.80;;;0.70;99.70;;;;;;2220875;64;20088;-42
2021/12/20 13:15:16;;;;;;;3.60;0.90;;;0.70;99.80;;;;;;2220687;64;20122;-42
2021/12/20 13:17:47;;;;;;;1.43;0.70;;;0.70;99.70;;;;;;2220273;64;20085;-43
2021/12/20 13:23:00;;;;;;;1.30;0.70;;;0.70;98.90;;;;;;2220948;64;20084;-41
2021/12/20 13:25:46;;;;;;;3.53;0.90;;;0.60;99.00;;;;;;2220520;64;20488;-39
2021/12/20 13:28:32;;;;;;;2.43;0.90;;;0.60;99.10;;;;;;2220970;64;20460;-50
2021/12/20 13:31:02;;;;;;;1.63;0.80;;;0.50;99.30;;;;;;2220688;64;20165;-40